sensor_id;sensor_type;location;lat;lon;timestamp;pressure;altitude;pressure_sealevel;temperature
74321;BMP280;62738;45.772;4.804;2023-03-02T00:01:38;99649.78;;;5.83
74321;BMP280;62738;45.772;4.804;2023-03-02T00:04:09;99644.16;;;5.62
74321;BMP280;62738;45.772;4.804;2023-03-02T00:06:37;99646.19;;;5.75
74321;BMP280;62738;45.772;4.804;2023-03-02T00:09:04;99639.38;;;5.89
74321;BMP280;62738;45.772;4.804;2023-03-02T00:11:33;99633.88;;;5.89
74321;BMP280;62738;45.772;4.804;2023-03-02T00:14:00;99636.03;;;5.70
74321;BMP280;62738;45.772;4.804;2023-03-02T00:16:27;99642.81;;;5.69
74321;BMP280;62738;45.772;4.804;2023-03-02T00:18:53;99645.41;;;5.61
74321;BMP280;62738;45.772;4.804;2023-03-02T00:21:20;99653.03;;;5.55
74321;BMP280;62738;45.772;4.804;2023-03-02T00:23:47;99639.00;;;5.72
74321;BMP280;62738;45.772;4.804;2023-03-02T00:26:13;99641.28;;;5.81
74321;BMP280;62738;45.772;4.804;2023-03-02T00:28:40;99650.50;;;5.83
74321;BMP280;62738;45.772;4.804;2023-03-02T00:31:07;99652.63;;;5.64
74321;BMP280;62738;45.772;4.804;2023-03-02T00:33:33;99650.41;;;5.49
74321;BMP280;62738;45.772;4.804;2023-03-02T00:36:01;99653.69;;;5.48
74321;BMP280;62738;45.772;4.804;2023-03-02T00:38:28;99652.09;;;5.52
74321;BMP280;62738;45.772;4.804;2023-03-02T00:40:55;99648.22;;;5.29
74321;BMP280;62738;45.772;4.804;2023-03-02T00:43:21;99650.41;;;5.49
74321;BMP280;62738;45.772;4.804;2023-03-02T00:45:55;99639.59;;;5.51
74321;BMP280;62738;45.772;4.804;2023-03-02T00:48:22;99636.03;;;5.70
74321;BMP280;62738;45.772;4.804;2023-03-02T00:50:49;99628.63;;;5.78
74321;BMP280;62738;45.772;4.804;2023-03-02T00:53:15;99626.91;;;5.88
74321;BMP280;62738;45.772;4.804;2023-03-02T00:55:51;99628.63;;;5.78
74321;BMP280;62738;45.772;4.804;2023-03-02T00:58:18;99629.47;;;5.73
74321;BMP280;62738;45.772;4.804;2023-03-02T01:00:46;99621.41;;;5.75
74321;BMP280;62738;45.772;4.804;2023-03-02T01:03:13;99616.66;;;5.75
74321;BMP280;62738;45.772;4.804;2023-03-02T01:05:40;99623.91;;;6.12
74321;BMP280;62738;45.772;4.804;2023-03-02T01:08:07;99621.94;;;5.99
74321;BMP280;62738;45.772;4.804;2023-03-02T01:10:33;99621.59;;;5.90
74321;BMP280;62738;45.772;4.804;2023-03-02T01:13:00;99621.59;;;5.90
74321;BMP280;62738;45.772;4.804;2023-03-02T01:15:27;99622.63;;;6.26
74321;BMP280;62738;45.772;4.804;2023-03-02T01:17:53;99629.22;;;6.10
74321;BMP280;62738;45.772;4.804;2023-03-02T01:20:20;99620.75;;;5.82
74321;BMP280;62738;45.772;4.804;2023-03-02T01:22:46;99613.34;;;5.50
74321;BMP280;62738;45.772;4.804;2023-03-02T01:25:13;99613.47;;;5.71
74321;BMP280;62738;45.772;4.804;2023-03-02T01:27:39;99622.69;;;5.87
74321;BMP280;62738;45.772;4.804;2023-03-02T01:30:07;99612.09;;;5.78
74321;BMP280;62738;45.772;4.804;2023-03-02T01:32:33;99616.75;;;5.70
74321;BMP280;62738;45.772;4.804;2023-03-02T01:35:00;99610.22;;;5.73
74321;BMP280;62738;45.772;4.804;2023-03-02T01:37:27;99608.19;;;5.73
74321;BMP280;62738;45.772;4.804;2023-03-02T01:39:54;99609.56;;;5.80
74321;BMP280;62738;45.772;4.804;2023-03-02T01:42:20;99607.25;;;5.71
74321;BMP280;62738;45.772;4.804;2023-03-02T01:44:49;99617.38;;;5.76
74321;BMP280;62738;45.772;4.804;2023-03-02T01:47:20;99612.09;;;5.78
74321;BMP280;62738;45.772;4.804;2023-03-02T01:52:28;99612.31;;;5.66
74321;BMP280;62738;45.772;4.804;2023-03-02T01:55:01;99618.25;;;5.57
74321;BMP280;62738;45.772;4.804;2023-03-02T01:57:32;99612.06;;;5.51
74321;BMP280;62738;45.772;4.804;2023-03-02T02:00:03;99621.53;;;5.69
